ETH402 HAAB-OEJN
Flight info
| Callsign | ETH402 |
|---|---|
| Flight time | N/A |
| Altitude | 40000 |
| Route | EKBOB1B EKBOB DCT KONET/N0486F410 UG650 RASKA/N0492F400 T513 EGMEG |
| Aircraft | A359/H-SDE2E3GHIJ3J4J5LM1ORWXY/LB1D1 |
Departure
| Time | N/A |
|---|---|
| Airport | Addis Ababa Bole International Airport (HAAB) |
Arrival
| Time | 2026-04-30 00:39 |
|---|---|
| Airport | King Abdulaziz International Airport (OEJN) |
| Time | Latitude | Longitude | Altitude | Speed | Heading |
|---|---|---|---|---|---|
| 2026-04-29 23:57 | 17.26661 | 38.97248 | 39897 ft | 509 kts | 0° |
| 2026-04-29 23:58 | 17.33742 | 38.97506 | 39890 ft | 510 kts | 0° |
| 2026-04-29 23:58 | 17.40837 | 38.97766 | 39893 ft | 510 kts | 0° |
| 2026-04-29 23:59 | 17.47933 | 38.98026 | 39893 ft | 510 kts | 0° |
| 2026-04-29 23:59 | 17.55029 | 38.98279 | 39894 ft | 510 kts | 360° |
| 2026-04-30 00:00 | 17.62127 | 38.98531 | 39893 ft | 510 kts | 360° |
| 2026-04-30 00:00 | 17.69177 | 38.98783 | 39895 ft | 511 kts | 360° |
| 2026-04-30 00:01 | 17.76334 | 38.99040 | 39893 ft | 510 kts | 360° |
| 2026-04-30 00:01 | 17.83403 | 38.99295 | 39894 ft | 510 kts | 360° |
| 2026-04-30 00:02 | 17.90507 | 38.99551 | 39892 ft | 511 kts | 360° |
| 2026-04-30 00:02 | 17.97621 | 38.99807 | 39892 ft | 511 kts | 360° |
| 2026-04-30 00:03 | 18.04732 | 39.00063 | 39892 ft | 511 kts | 360° |
| 2026-04-30 00:03 | 18.11808 | 39.00319 | 39893 ft | 511 kts | 359° |
| 2026-04-30 00:04 | 18.18924 | 39.00582 | 39892 ft | 512 kts | 0° |
| 2026-04-30 00:04 | 18.26043 | 39.00961 | 39892 ft | 512 kts | 1° |
| 2026-04-30 00:05 | 18.33162 | 39.01383 | 39889 ft | 512 kts | 1° |
| 2026-04-30 00:05 | 18.40285 | 39.01793 | 39889 ft | 513 kts | 0° |
| 2026-04-30 00:06 | 18.47434 | 39.02191 | 39888 ft | 514 kts | 0° |
| 2026-04-30 00:06 | 18.53372 | 39.02519 | 39889 ft | 514 kts | 0° |
| 2026-04-30 00:07 | 18.60508 | 39.02913 | 39898 ft | 514 kts | 0° |
| 2026-04-30 00:07 | 18.67648 | 39.03308 | 39886 ft | 514 kts | 0° |
| 2026-04-30 00:08 | 18.74801 | 39.03705 | 39886 ft | 514 kts | 0° |
| 2026-04-30 00:08 | 18.81957 | 39.04102 | 39884 ft | 514 kts | 0° |
| 2026-04-30 00:09 | 18.89059 | 39.04497 | 39888 ft | 515 kts | 360° |
| 2026-04-30 00:09 | 18.96210 | 39.04895 | 39886 ft | 515 kts | 360° |
| 2026-04-30 00:10 | 19.03387 | 39.05294 | 39884 ft | 515 kts | 0° |
| 2026-04-30 00:10 | 19.10545 | 39.05650 | 39874 ft | 514 kts | 355° |
| 2026-04-30 00:10 | 19.14066 | 39.05225 | 39896 ft | 507 kts | 343° |
| 2026-04-30 00:11 | 19.17498 | 39.04358 | 39884 ft | 506 kts | 342° |
| 2026-04-30 00:11 | 19.24292 | 39.02463 | 39668 ft | 500 kts | 341° |
| 2026-04-30 00:11 | 19.27642 | 39.01514 | 39436 ft | 497 kts | 341° |
| 2026-04-30 00:12 | 19.30981 | 39.00565 | 39193 ft | 496 kts | 341° |
| 2026-04-30 00:12 | 19.34315 | 38.99615 | 38968 ft | 497 kts | 341° |
| 2026-04-30 00:12 | 19.37656 | 38.98663 | 38740 ft | 498 kts | 341° |
| 2026-04-30 00:12 | 19.41004 | 38.97708 | 38518 ft | 499 kts | 341° |
| 2026-04-30 00:13 | 19.44359 | 38.96751 | 38265 ft | 499 kts | 341° |
| 2026-04-30 00:13 | 19.47716 | 38.95792 | 38001 ft | 499 kts | 341° |
| 2026-04-30 00:13 | 19.51067 | 38.94835 | 37739 ft | 499 kts | 341° |
| 2026-04-30 00:13 | 19.54428 | 38.93875 | 37476 ft | 499 kts | 341° |
| 2026-04-30 00:14 | 19.57783 | 38.92916 | 37229 ft | 499 kts | 340° |
| 2026-04-30 00:14 | 19.61139 | 38.91956 | 36972 ft | 499 kts | 340° |
| 2026-04-30 00:14 | 19.64492 | 38.90997 | 36715 ft | 500 kts | 340° |
| 2026-04-30 00:14 | 19.67852 | 38.90035 | 36481 ft | 500 kts | 340° |
| 2026-04-30 00:15 | 19.71206 | 38.89075 | 36250 ft | 500 kts | 340° |
| 2026-04-30 00:15 | 19.74569 | 38.88112 | 36001 ft | 499 kts | 340° |
| 2026-04-30 00:15 | 19.77926 | 38.87150 | 35758 ft | 499 kts | 340° |
| 2026-04-30 00:15 | 19.81276 | 38.86189 | 35528 ft | 499 kts | 340° |
| 2026-04-30 00:16 | 19.84589 | 38.85239 | 35298 ft | 499 kts | 340° |
| 2026-04-30 00:16 | 19.87942 | 38.84276 | 35068 ft | 499 kts | 340° |
| 2026-04-30 00:16 | 19.91294 | 38.83314 | 34831 ft | 499 kts | 340° |
| 2026-04-30 00:16 | 19.94656 | 38.82348 | 34611 ft | 499 kts | 340° |
| 2026-04-30 00:17 | 19.98006 | 38.81386 | 34388 ft | 499 kts | 340° |
| 2026-04-30 00:17 | 20.01363 | 38.80421 | 34156 ft | 499 kts | 340° |
| 2026-04-30 00:17 | 20.04712 | 38.79458 | 33953 ft | 499 kts | 340° |
| 2026-04-30 00:17 | 20.08070 | 38.78492 | 33703 ft | 499 kts | 340° |
| 2026-04-30 00:18 | 20.11424 | 38.77526 | 33440 ft | 499 kts | 340° |
| 2026-04-30 00:18 | 20.14782 | 38.76559 | 33188 ft | 499 kts | 340° |
| 2026-04-30 00:18 | 20.18138 | 38.75592 | 32941 ft | 500 kts | 340° |
| 2026-04-30 00:18 | 20.21453 | 38.74636 | 32693 ft | 500 kts | 339° |
| 2026-04-30 00:19 | 20.24855 | 38.73655 | 32444 ft | 500 kts | 339° |
| 2026-04-30 00:19 | 20.28216 | 38.72686 | 32225 ft | 500 kts | 339° |
| 2026-04-30 00:19 | 20.31577 | 38.71716 | 31842 ft | 498 kts | 339° |
| 2026-04-30 00:19 | 20.34922 | 38.70751 | 31001 ft | 498 kts | 339° |
| 2026-04-30 00:20 | 20.38272 | 38.69782 | 30084 ft | 500 kts | 339° |
| 2026-04-30 00:20 | 20.41601 | 38.68819 | 29047 ft | 501 kts | 339° |
| 2026-04-30 00:20 | 20.44962 | 38.67847 | 28314 ft | 496 kts | 339° |
| 2026-04-30 00:20 | 20.48269 | 38.66892 | 27665 ft | 489 kts | 339° |
| 2026-04-30 00:21 | 20.51536 | 38.65948 | 27020 ft | 484 kts | 340° |
| 2026-04-30 00:21 | 20.54772 | 38.65011 | 26362 ft | 479 kts | 340° |
| 2026-04-30 00:21 | 20.57999 | 38.64212 | 25785 ft | 476 kts | 346° |
| 2026-04-30 00:21 | 20.61318 | 38.63871 | 24855 ft | 484 kts | 355° |
| 2026-04-30 00:22 | 20.63890 | 38.64037 | 24253 ft | 488 kts | 4° |
| 2026-04-30 00:22 | 20.67195 | 38.64868 | 23580 ft | 489 kts | 16° |
| 2026-04-30 00:22 | 20.70280 | 38.66378 | 22851 ft | 488 kts | 28° |
| 2026-04-30 00:22 | 20.72981 | 38.68582 | 22067 ft | 488 kts | 40° |
| 2026-04-30 00:23 | 20.75409 | 38.71070 | 21255 ft | 476 kts | 42° |
| 2026-04-30 00:23 | 20.77730 | 38.73528 | 19924 ft | 467 kts | 42° |
| 2026-04-30 00:23 | 20.80027 | 38.75962 | 18588 ft | 461 kts | 42° |
| 2026-04-30 00:23 | 20.82255 | 38.78318 | 17274 ft | 452 kts | 43° |
| 2026-04-30 00:24 | 20.84473 | 38.80659 | 15882 ft | 444 kts | 43° |
| 2026-04-30 00:24 | 20.86645 | 38.82951 | 14936 ft | 429 kts | 43° |
| 2026-04-30 00:24 | 20.88717 | 38.85139 | 14312 ft | 407 kts | 43° |
| 2026-04-30 00:24 | 20.90718 | 38.87248 | 13769 ft | 404 kts | 43° |
| 2026-04-30 00:25 | 20.92717 | 38.89356 | 13061 ft | 402 kts | 43° |
| 2026-04-30 00:25 | 20.94701 | 38.91448 | 12406 ft | 399 kts | 43° |
| 2026-04-30 00:25 | 20.96665 | 38.93521 | 11751 ft | 395 kts | 43° |
| 2026-04-30 00:25 | 20.98615 | 38.95580 | 11097 ft | 392 kts | 43° |
| 2026-04-30 00:26 | 21.00522 | 38.97595 | 10892 ft | 377 kts | 43° |
| 2026-04-30 00:26 | 21.02342 | 38.99520 | 10768 ft | 359 kts | 43° |
| 2026-04-30 00:26 | 21.04083 | 39.01362 | 10645 ft | 343 kts | 43° |
| 2026-04-30 00:26 | 21.05743 | 39.03118 | 10520 ft | 328 kts | 43° |
| 2026-04-30 00:27 | 21.07314 | 39.04781 | 10395 ft | 315 kts | 43° |
| 2026-04-30 00:27 | 21.08843 | 39.06398 | 10259 ft | 303 kts | 43° |
| 2026-04-30 00:27 | 21.10315 | 39.07956 | 10094 ft | 293 kts | 43° |
| 2026-04-30 00:27 | 21.11770 | 39.09495 | 9760 ft | 299 kts | 43° |
| 2026-04-30 00:28 | 21.13275 | 39.11085 | 9492 ft | 306 kts | 43° |
| 2026-04-30 00:28 | 21.14796 | 39.12695 | 9176 ft | 307 kts | 43° |
| 2026-04-30 00:28 | 21.16309 | 39.14300 | 8754 ft | 305 kts | 43° |
| 2026-04-30 00:28 | 21.17811 | 39.15891 | 8351 ft | 302 kts | 43° |
| 2026-04-30 00:29 | 21.19289 | 39.17460 | 8003 ft | 298 kts | 43° |
| 2026-04-30 00:29 | 21.20756 | 39.19015 | 7669 ft | 295 kts | 43° |
| 2026-04-30 00:29 | 21.22215 | 39.20563 | 7336 ft | 294 kts | 43° |
| 2026-04-30 00:29 | 21.23684 | 39.22065 | 7122 ft | 288 kts | 38° |
| 2026-04-30 00:30 | 21.25337 | 39.23163 | 6823 ft | 278 kts | 19° |
| 2026-04-30 00:30 | 21.27123 | 39.23733 | 6602 ft | 258 kts | 10° |
| 2026-04-30 00:30 | 21.28819 | 39.24126 | 6362 ft | 241 kts | 8° |
| 2026-04-30 00:30 | 21.30432 | 39.24467 | 6009 ft | 232 kts | 8° |
| 2026-04-30 00:31 | 21.31989 | 39.24783 | 5620 ft | 224 kts | 7° |
| 2026-04-30 00:31 | 21.33497 | 39.25085 | 5218 ft | 216 kts | 7° |
| 2026-04-30 00:31 | 21.34947 | 39.25372 | 4832 ft | 209 kts | 7° |
| 2026-04-30 00:31 | 21.36370 | 39.25651 | 4544 ft | 206 kts | 6° |
| 2026-04-30 00:32 | 21.37776 | 39.25925 | 4320 ft | 205 kts | 7° |
| 2026-04-30 00:32 | 21.39170 | 39.26194 | 4069 ft | 200 kts | 7° |
| 2026-04-30 00:32 | 21.40530 | 39.26236 | 3840 ft | 196 kts | 353° |
| 2026-04-30 00:32 | 21.41856 | 39.25979 | 3612 ft | 191 kts | 345° |
| 2026-04-30 00:33 | 21.43121 | 39.25565 | 3372 ft | 190 kts | 340° |
| 2026-04-30 00:33 | 21.44366 | 39.25083 | 3157 ft | 189 kts | 339° |
| 2026-04-30 00:33 | 21.45592 | 39.24593 | 3065 ft | 189 kts | 339° |
| 2026-04-30 00:33 | 21.46827 | 39.24104 | 3021 ft | 190 kts | 340° |
| 2026-04-30 00:34 | 21.48042 | 39.23628 | 3010 ft | 178 kts | 340° |
| 2026-04-30 00:34 | 21.49167 | 39.23189 | 3007 ft | 168 kts | 340° |
| 2026-04-30 00:34 | 21.50264 | 39.22761 | 3008 ft | 167 kts | 340° |
| 2026-04-30 00:34 | 21.51359 | 39.22330 | 2974 ft | 168 kts | 340° |
| 2026-04-30 00:35 | 21.52459 | 39.21894 | 2806 ft | 169 kts | 340° |
| 2026-04-30 00:35 | 21.53547 | 39.21462 | 2588 ft | 169 kts | 340° |
| 2026-04-30 00:35 | 21.54654 | 39.21026 | 2346 ft | 170 kts | 340° |
| 2026-04-30 00:35 | 21.55770 | 39.20584 | 2125 ft | 171 kts | 340° |
| 2026-04-30 00:36 | 21.56892 | 39.20140 | 1903 ft | 172 kts | 340° |
| 2026-04-30 00:36 | 21.58015 | 39.19696 | 1672 ft | 172 kts | 340° |
| 2026-04-30 00:36 | 21.59140 | 39.19251 | 1450 ft | 173 kts | 340° |
| 2026-04-30 00:36 | 21.60235 | 39.18817 | 1226 ft | 159 kts | 341° |
| 2026-04-30 00:37 | 21.61232 | 39.18424 | 1024 ft | 147 kts | 340° |
| 2026-04-30 00:37 | 21.62159 | 39.18056 | 846 ft | 135 kts | 341° |
| 2026-04-30 00:37 | 21.63022 | 39.17715 | 684 ft | 131 kts | 340° |
| 2026-04-30 00:37 | 21.63879 | 39.17382 | 511 ft | 130 kts | 340° |
| 2026-04-30 00:38 | 21.64725 | 39.17044 | 364 ft | 131 kts | 339° |
| 2026-04-30 00:38 | 21.65590 | 39.16696 | 213 ft | 133 kts | 340° |
| 2026-04-30 00:38 | 21.66443 | 39.16363 | 51 ft | 130 kts | 339° |
| 2026-04-30 00:38 | 21.67214 | 39.16059 | 40 ft | 96 kts | 339° |
| 2026-04-30 00:39 | 21.67698 | 39.15867 | 44 ft | 54 kts | 340° |
| 2026-04-30 00:39 | 21.68003 | 39.15744 | 43 ft | 44 kts | 337° |
| 2026-04-30 00:39 | 21.68231 | 39.15551 | 39 ft | 29 kts | 310° |
| 2026-04-30 00:39 | 21.68311 | 39.15451 | 38 ft | 18 kts | 309° |
| 2026-04-30 00:40 | 21.68345 | 39.15339 | 34 ft | 14 kts | 245° |
| 2026-04-30 00:40 | 21.68301 | 39.15237 | 33 ft | 16 kts | 250° |
| 2026-04-30 00:40 | 21.68263 | 39.15118 | 33 ft | 18 kts | 248° |
| 2026-04-30 00:40 | 21.68216 | 39.14986 | 33 ft | 20 kts | 251° |
| 2026-04-30 00:41 | 21.68165 | 39.14836 | 33 ft | 22 kts | 250° |
| 2026-04-30 00:41 | 21.68108 | 39.14672 | 33 ft | 24 kts | 249° |
| 2026-04-30 00:41 | 21.68047 | 39.14495 | 33 ft | 26 kts | 250° |
| 2026-04-30 00:41 | 21.67982 | 39.14306 | 33 ft | 28 kts | 250° |
| 2026-04-30 00:42 | 21.67917 | 39.14116 | 33 ft | 19 kts | 249° |
| 2026-04-30 00:42 | 21.67867 | 39.13991 | 34 ft | 18 kts | 231° |
| 2026-04-30 00:42 | 21.67758 | 39.13992 | 34 ft | 18 kts | 160° |
| 2026-04-30 00:42 | 21.67636 | 39.14042 | 33 ft | 20 kts | 153° |
| 2026-04-30 00:43 | 21.67579 | 39.14147 | 33 ft | 0 kts | 110° |
| 2026-04-30 00:43 | 21.67575 | 39.14159 | 33 ft | 0 kts | 110° |